• Join FlightAware (Why Join?)
  • Login
  • US Flag 
05:06AM EDT


 

Airport Tracker/Info


-or-


 

Live Flight TrackerFlight Track Log ✈ SWA1586 ✈ 13-May-2013 ✈ KSLC - KDEN

Flight Track Log - Related Links

Times and Time Zones

All times are in EDT time to prevent confusion due to time zone crossing. See the SWA1586 flight status page for this flight to view local times or setup timezone preferences in your user account.

Time Position Orientation Groundspeed Altitude Reporting Facility
EDT Latitude Longitude Course Direction KTS MPH feet Rate Location/Type
11:15PM 40.7692 -111.9639 251° West 148 170 4,900  Level Salt Lake Center
11:16PM 40.7517 -112.0292 251° West 210 242 7,000 1,740 Climbing Salt Lake Center
11:17PM 40.7808 -112.0808 307° West 269 310 8,400 2,340 Climbing Salt Lake Center
11:18PM 40.8375 -111.9933 49° Northeast 312 359 11,700 2,400 Climbing Salt Lake Center
11:19PM 40.8497 -111.8728 82° East 338 389 13,400 2,100 Climbing Salt Lake Center
11:20PM 40.8681 -111.7447 79° East 360 414 16,000 2,340 Climbing Salt Lake Center
11:21PM 40.8850 -111.6067 81° East 389 448 18,200 2,220 Climbing Salt Lake Center
11:22PM 40.9025 -111.4625 81° East 402 463 20,600 2,220 Climbing Salt Lake Center
11:23PM 40.9006 -111.3147 91° East 406 467 22,800 1,860 Climbing Salt Lake Center
11:24PM 40.8811 -111.1653 100° East 415 478 24,400 1,860 Climbing Salt Lake Center
11:25PM 40.8586 -110.9781 99° East 431 496 26,600 1,740 Climbing Salt Lake Center
11:26PM 40.8400 -110.8189 99° East 439 505 28,000 1,500 Climbing Salt Lake Center
11:27PM 40.8194 -110.6561 99° East 448 516 29,700 1,860 Climbing Salt Lake Center
11:28PM 40.7978 -110.4886 100° East 447 514 31,800 1,920 Climbing Salt Lake Center
11:29PM 40.7803 -110.3375 99° East 437 503 33,700 1,680 Climbing Salt Lake Center
11:30PM 40.7606 -110.1819 99° East 432 497 35,300 1,380 Climbing Salt Lake Center
11:31PM 40.7392 -110.0100 99° East 429 494 36,600 780 Climbing Salt Lake Center
11:32PM 40.7300 -109.8606 95° East 429 494 37,000 180 Climbing Salt Lake Center
11:33PM 40.7186 -109.7103 96° East 429 494 37,000  Level Salt Lake Center
11:34PM 40.7061 -109.5336 95° East 432 497 37,000  Level Salt Lake Center
11:35PM 40.6953 -109.3833 95° East 433 498 37,000  Level Salt Lake Center
11:36PM 40.6833 -109.2331 96° East 431 496 37,000  Level Salt Lake Center
11:37PM 40.6708 -109.0689 96° East 434 499 37,000  Level Salt Lake Center
11:38PM 40.6572 -108.8961 96° East 429 494 37,000  Level Salt Lake Center
11:39PM 40.6508 -108.8033 95° East 430 495 37,000  Level Denver Center
11:40PM 40.6378 -108.6531 96° East 430 495 37,000  Level Denver Center
11:40PM 40.6328 -108.5981 97° East 429 494 37,000  Level Salt Lake Center
11:41PM 40.6239 -108.4806 96° East 424 488 37,000  Level Denver Center
11:42PM 40.6117 -108.3317 96° East 425 489 37,000  Level Denver Center
11:42PM 40.6067 -108.2794 97° East 424 488 37,000  Level Salt Lake Center
11:43PM 40.5917 -108.1092 97° East 421 484 37,000  Level Salt Lake Center
11:44PM 40.5847 -108.0142 95° East 421 484 37,000  Level Denver Center
11:45PM 40.5722 -107.8681 96° East 420 483 37,000  Level Denver Center
11:46PM 40.5578 -107.7222 97° East 419 482 37,000  Level Denver Center
11:47PM 40.5428 -107.5517 97° East 420 483 37,000  Level Denver Center
11:48PM 40.5289 -107.4064 97° East 419 482 37,000 -420 Level Denver Center
11:49PM 40.5172 -107.2594 96° East 420 483 36,200 -960 Descending Denver Center
11:50PM 40.5094 -107.0847 93° East 421 484 35,100 -600 Descending Denver Center
11:51PM 40.5006 -106.9303 94° East 422 486 35,000 -60 Descending Denver Center
11:52PM 40.4908 -106.7742 95° East 425 489 35,000  Level Denver Center
11:53PM 40.4836 -106.6181 93° East 426 490 35,000  Level Denver Center
11:54PM 40.4750 -106.4694 94° East 428 493 35,000 -1,320 Level Denver Center
11:55PM 40.4644 -106.2928 94° East 432 497 32,300 -2,760 Descending Denver Center
11:56PM 40.4553 -106.1469 95° East 429 494 29,400 -2,760 Descending Denver Center
11:57PM 40.4450 -105.9903 95° East 430 495 26,800 -2,520 Descending Denver Center
11:58PM 40.4214 -105.8431 102° East 412 474 24,300 -2,400 Descending Denver Center
11:59PM 40.3989 -105.7003 102° East 401 461 22,000 -1,560 Descending Denver Center
12:00AM 40.3750 -105.5636 103° East 391 450 21,200 -1,440 Descending Denver Center
12:01AM 40.3533 -105.4217 101° East 362 417 19,100 -1,680 Descending Denver Center
12:02AM 40.3367 -105.2931 100° East 358 412 17,900 -1,620 Descending Denver Center
12:03AM 40.3169 -105.1572 101° East 354 407 15,900 -1,980 Descending Denver Center
12:04AM 40.2697 -105.0467 119° Southeast 347 399 13,900 -1,800 Descending Denver Center
12:05AM 40.2244 -104.9417 119° Southeast 335 386 12,300 -1,440 Descending Denver Center
12:06AM 40.1828 -104.8433 119° Southeast 314 361 11,000 -1,500 Descending Denver Center
12:07AM 40.1397 -104.7553 123° Southeast 296 341 9,300 -1,560 Descending Denver Center
12:08AM 40.0628 -104.7283 165° South 263 303 7,900 -1,020 Descending Denver Center
12:09AM 40.0094 -104.7028 160° South 205 236 7,300 -660 Descending Denver Center
12:10AM 39.9600 -104.6942 172° South 182 209 6,600 -780 Descending Denver Center
12:12AM 39.9183 -104.6958 182° South 155 178 5,800 -600 Descending Denver Center
12:13AM 39.8806 -104.6967 181° South 134 154 5,400 -420 Descending Denver Center
12:15AM 39.8617 -104.6732 180° South  Level Estimated
12:22AM 39.8617 -104.6732 180° South  Level Estimated
12:23AM 39.8617 -104.6732 180° South  Level Estimated